Time;durP1;ratioP1;P1;durP2;ratioP2;P2;SDS_P1;SDS_P2;PMS_P1;PMS_P2;Temp;Humidity;BMP_temperature;BMP_pressure;BME280_temperature;BME280_humidity;BME280_pressure;Samples;Min_cycle;Max_cycle;Signal;HPM_P1;HPM_P2
2022/05/28 00:00:31;;;;;;;5.00;3.25;;;;;;;23.77;92.99;100673.94;5136495;27;20041;-70
2022/05/28 00:03:17;;;;;;;4.72;3.50;;;;;;;23.72;94.57;100675.25;5135717;27;20026;-70
2022/05/28 00:06:18;;;;;;;6.97;3.80;;;;;;;23.46;96.50;100669.06;5121699;27;20023;-71
2022/05/28 00:09:04;;;;;;;3.95;3.30;;;;;;;23.74;94.60;100663.47;5120939;27;20015;-71
2022/05/28 00:11:50;;;;;;;6.53;3.38;;;;;;;23.72;95.71;100661.88;5136686;27;20023;-71
2022/05/28 00:14:35;;;;;;;5.07;3.58;;;;;;;23.70;95.99;100664.66;5136216;27;20525;-71
2022/05/28 00:17:21;;;;;;;5.50;3.75;;;;;;;23.52;97.23;100656.13;5122195;27;20130;-71
2022/05/28 00:20:08;;;;;;;4.38;3.45;;;;;;;23.65;97.00;100653.44;5135803;27;20034;-71
2022/05/28 00:22:54;;;;;;;5.07;3.90;;;;;;;23.56;98.40;100647.88;5121213;27;20110;-70
2022/05/28 00:25:40;;;;;;;4.65;3.28;;;;;;;23.51;96.27;100648.22;5136166;27;20027;-71
2022/05/28 00:28:26;;;;;;;8.45;3.53;;;;;;;23.49;97.34;100644.78;5135985;27;20027;-72
2022/05/28 00:31:12;;;;;;;5.18;3.83;;;;;;;23.43;97.80;100642.56;5136451;27;20030;-70
2022/05/28 00:33:58;;;;;;;7.10;3.97;;;;;;;23.30;98.67;100639.03;5136446;27;20182;-71
2022/05/28 00:36:44;;;;;;;7.13;3.72;;;;;;;23.33;99.93;100633.47;5135670;27;20073;-70
2022/05/28 00:39:30;;;;;;;4.68;3.53;;;;;;;23.27;97.15;100629.41;5135394;27;20027;-70
2022/05/28 00:42:16;;;;;;;9.85;3.75;;;;;;;23.21;98.24;100621.84;5135730;27;20019;-71
2022/05/28 00:45:02;;;;;;;4.60;3.55;;;;;;;23.55;96.64;100628.31;5136430;27;20023;-71
2022/05/28 00:47:53;;;;;;;4.65;3.60;;;;;;;23.33;99.85;100625.47;5135911;27;20397;-71
2022/05/28 00:50:39;;;;;;;7.35;3.90;;;;;;;23.40;100.00;100622.22;5135245;27;20050;-71
2022/05/28 00:53:25;;;;;;;4.13;3.72;;;;;;;23.13;100.00;100624.19;5135827;27;20377;-72
2022/05/28 00:56:11;;;;;;;6.63;4.30;;;;;;;23.23;100.00;100622.59;5135719;27;20035;-71
2022/05/28 00:58:58;;;;;;;6.70;4.10;;;;;;;23.31;100.00;100617.53;5135795;27;20015;-71
2022/05/28 01:01:44;;;;;;;5.85;4.00;;;;;;;23.20;100.00;100621.97;5120460;27;20080;-71
2022/05/28 01:04:47;;;;;;;5.13;3.85;;;;;;;23.06;100.00;100616.69;5134880;27;20019;-71
2022/05/28 01:08:10;;;;;;;8.35;4.00;;;;;;;22.72;100.00;100620.00;5120240;27;20359;-71
2022/05/28 01:11:10;;;;;;;5.32;4.15;;;;;;;22.89;100.00;100615.22;5134930;27;20027;-71
2022/05/28 01:14:16;;;;;;;4.88;3.72;;;;;;;23.03;100.00;100620.44;5133525;27;20039;-71
2022/05/28 01:17:15;;;;;;;8.68;4.00;;;;;;;22.96;100.00;100621.84;5135411;27;20023;-71
2022/05/28 01:20:07;;;;;;;7.63;4.18;;;;;;;22.74;100.00;100628.75;5134565;27;20019;-71
2022/05/28 01:23:17;;;;;;;6.90;4.15;;;;;;;22.78;100.00;100627.56;5134568;27;20042;-71
2022/05/28 01:26:18;;;;;;;8.30;3.75;;;;;;;22.56;100.00;100622.88;5135333;27;20023;-71
2022/05/28 01:29:07;;;;;;;8.07;4.10;;;;;;;22.42;100.00;100627.41;5134877;27;20023;-71
2022/05/28 01:31:55;;;;;;;5.30;3.88;;;;;;;22.42;100.00;100624.75;5133724;27;20027;-71
2022/05/28 01:34:43;;;;;;;7.22;3.75;;;;;;;22.40;100.00;100629.31;5135564;27;20178;-71
2022/05/28 01:37:30;;;;;;;5.80;3.80;;;;;;;22.40;100.00;100631.97;5134240;27;20023;-72
2022/05/28 01:40:19;;;;;;;4.72;4.00;;;;;;;22.16;100.00;100645.16;5134370;28;20355;-71
2022/05/28 01:43:08;;;;;;;4.18;3.78;;;;;;;22.18;100.00;100648.56;5134323;28;20070;-71
2022/05/28 01:45:55;;;;;;;6.28;4.20;;;;;;;21.96;100.00;100650.09;5134805;28;20118;-71
2022/05/28 01:48:44;;;;;;;5.45;3.80;;;;;;;21.49;100.00;100647.75;5119686;28;20118;-71
2022/05/28 01:51:35;;;;;;;4.40;3.65;;;;;;;21.71;100.00;100649.97;5135699;28;20027;-71
2022/05/28 01:54:26;;;;;;;4.20;3.80;;;;;;;21.99;100.00;100645.38;5120252;28;20027;-73
2022/05/28 01:57:13;;;;;;;5.22;3.97;;;;;;;21.86;100.00;100643.66;5119964;28;20035;-71
2022/05/28 01:59:59;;;;;;;6.13;4.25;;;;;;;22.02;100.00;100642.53;5116689;28;20027;-70
2022/05/28 02:02:45;;;;;;;5.32;4.07;;;;;;;22.10;100.00;100644.72;5135138;28;20019;-70
2022/05/28 02:05:30;;;;;;;4.25;3.70;;;;;;;22.13;100.00;100632.00;5134494;28;20066;-71
2022/05/28 02:08:16;;;;;;;5.78;3.95;;;;;;;21.80;100.00;100628.03;5120229;28;20027;-71
2022/05/28 02:11:08;;;;;;;7.45;4.05;;;;;;;21.97;100.00;100631.31;5134296;28;20459;-72
2022/05/28 02:14:17;;;;;;;7.55;4.13;;;;;;;22.10;100.00;100624.19;5133903;28;20062;-71
2022/05/28 02:17:47;;;;;;;5.90;4.00;;;;;;;21.66;100.00;100626.22;5134090;28;20503;-71
2022/05/28 02:21:15;;;;;;;5.15;4.10;;;;;;;22.15;100.00;100627.41;5134863;28;20113;-71
2022/05/28 02:24:08;;;;;;;6.00;3.90;;;;;;;21.79;100.00;100618.31;5134105;28;20027;-71
2022/05/28 02:27:04;;;;;;;6.13;3.90;;;;;;;21.82;100.00;100628.78;5138750;27;20084;-71
2022/05/28 02:29:50;;;;;;;4.40;3.90;;;;;;;21.97;100.00;100625.09;5137993;27;20019;-71
2022/05/28 02:32:36;;;;;;;4.68;4.18;;;;;;;22.07;100.00;100626.22;5137798;27;20027;-71
2022/05/28 02:35:22;;;;;;;7.55;4.25;;;;;;;22.02;100.00;100628.34;5138709;27;20102;-71
2022/05/28 02:38:08;;;;;;;4.50;4.00;;;;;;;22.03;100.00;100624.72;5138287;27;20027;-71
2022/05/28 02:40:54;;;;;;;6.68;4.18;;;;;;;22.21;100.00;100624.34;5138281;27;20023;-71
2022/05/28 02:43:40;;;;;;;6.45;4.15;;;;;;;22.06;100.00;100624.53;5123303;27;20022;-72
2022/05/28 02:46:26;;;;;;;7.15;4.68;;;;;;;22.11;100.00;100623.25;5138669;27;20016;-71
2022/05/28 02:49:12;;;;;;;6.93;4.43;;;;;;;22.11;100.00;100625.91;5137969;27;20076;-71
2022/05/28 02:52:02;;;;;;;8.45;4.55;;;;;;;21.49;100.00;100617.56;5137948;27;20144;-71
2022/05/28 02:54:48;;;;;;;9.32;4.85;;;;;;;21.68;100.00;100629.66;5137766;27;20027;-71
2022/05/28 02:57:35;;;;;;;6.97;4.68;;;;;;;21.63;100.00;100625.56;5136814;27;20023;-71
2022/05/28 03:00:20;;;;;;;9.55;4.57;;;;;;;21.52;100.00;100628.91;5138533;27;20030;-71
2022/05/28 03:03:06;;;;;;;7.72;4.70;;;;;;;21.83;100.00;100638.50;5136843;27;20034;-71
2022/05/28 03:05:52;;;;;;;8.55;4.78;;;;;;;21.95;100.00;100633.19;5137718;27;20045;-70
2022/05/28 03:08:38;;;;;;;8.90;5.10;;;;;;;21.88;100.00;100634.59;5137744;27;20023;-70
2022/05/28 03:11:24;;;;;;;6.45;4.53;;;;;;;22.15;100.00;100645.25;5137958;27;20031;-71
2022/05/28 03:14:11;;;;;;;7.38;4.80;;;;;;;21.90;100.00;100654.00;5121650;27;20054;-71
2022/05/28 03:16:57;;;;;;;9.90;4.53;;;;;;;21.94;100.00;100657.34;5123976;27;20023;-70
2022/05/28 03:19:43;;;;;;;6.05;4.13;;;;;;;22.02;100.00;100668.38;5123622;27;20481;-70
2022/05/28 03:22:28;;;;;;;6.85;4.47;;;;;;;22.00;100.00;100673.81;5137793;27;20355;-71
2022/05/28 03:25:14;;;;;;;6.93;4.68;;;;;;;22.16;100.00;100674.53;5136188;27;20027;-71
2022/05/28 03:28:00;;;;;;;10.68;4.40;;;;;;;22.00;100.00;100679.16;5123151;27;20376;-72
2022/05/28 03:30:46;;;;;;;6.15;4.40;;;;;;;21.67;100.00;100675.09;5137240;27;20080;-71
2022/05/28 03:33:32;;;;;;;8.75;4.85;;;;;;;21.46;100.00;100681.78;5122653;27;20031;-71
2022/05/28 03:36:18;;;;;;;8.73;4.82;;;;;;;21.76;100.00;100702.06;5136450;27;20058;-71
2022/05/28 03:39:04;;;;;;;6.00;4.75;;;;;;;21.30;100.00;100697.84;5121992;27;20034;-71
2022/05/28 03:41:50;;;;;;;5.47;4.43;;;;;;;21.04;100.00;100698.59;5137050;27;20027;-71
2022/05/28 03:44:36;;;;;;;8.10;5.03;;;;;;;21.19;100.00;100689.66;5136960;27;20023;-71
2022/05/28 03:47:21;;;;;;;5.40;3.95;;;;;;;21.04;100.00;100695.06;5136775;27;20050;-71
2022/05/28 03:50:07;;;;;;;6.18;4.30;;;;;;;20.72;100.00;100704.97;5123092;27;20122;-71
2022/05/28 03:52:53;;;;;;;6.68;4.65;;;;;;;21.38;100.00;100695.56;5122585;27;20356;-71
2022/05/28 03:55:40;;;;;;;5.93;4.70;;;;;;;21.11;100.00;100699.06;5135960;27;20030;-71
2022/05/28 03:58:25;;;;;;;7.68;4.40;;;;;;;21.49;100.00;100698.44;5137093;27;20087;-71
2022/05/28 04:01:11;;;;;;;10.02;4.00;;;;;;;21.97;100.00;100708.69;5121510;27;20031;-71
2022/05/28 04:03:57;;;;;;;5.78;4.22;;;;;;;21.80;100.00;100700.03;5137106;27;20057;-71
2022/05/28 04:06:43;;;;;;;8.80;4.50;;;;;;;21.58;100.00;100711.16;5135853;27;20019;-71
2022/05/28 04:09:29;;;;;;;7.70;4.70;;;;;;;21.53;100.00;100721.28;5136368;27;20015;-72
2022/05/28 04:12:15;;;;;;;5.63;4.35;;;;;;;22.04;100.00;100717.16;5135244;27;20051;-71
2022/05/28 04:15:00;;;;;;;6.85;4.45;;;;;;;21.85;100.00;100712.13;5135833;27;20050;-72
2022/05/28 04:17:46;;;;;;;11.02;4.35;;;;;;;22.18;100.00;100725.97;5136366;27;20111;-71
2022/05/28 04:20:32;;;;;;;8.40;5.63;;;;;;;22.60;100.00;100733.00;5121667;27;20019;-71
2022/05/28 04:23:17;;;;;;;8.13;4.65;;;;;;;22.38;100.00;100722.03;5136772;27;20042;-71
2022/05/28 04:26:03;;;;;;;10.00;5.15;;;;;;;22.41;100.00;100719.13;5136241;27;20015;-70
2022/05/28 04:28:49;;;;;;;7.90;4.80;;;;;;;22.75;100.00;100723.97;5121736;27;20042;-71
2022/05/28 04:31:35;;;;;;;6.28;4.50;;;;;;;22.44;100.00;100714.47;5135871;27;20037;-71
2022/05/28 04:34:21;;;;;;;5.00;4.50;;;;;;;22.92;100.00;100719.22;5135492;27;20031;-72
2022/05/28 04:37:06;;;;;;;5.80;4.22;;;;;;;23.08;100.00;100719.00;5135562;27;20440;-72
2022/05/28 04:39:52;;;;;;;5.10;4.40;;;;;;;22.65;100.00;100723.75;5121506;27;20084;-72
2022/05/28 04:42:38;;;;;;;7.03;4.75;;;;;;;22.71;100.00;100720.63;5135844;27;20054;-71
2022/05/28 04:45:24;;;;;;;7.78;5.78;;;;;;;22.88;100.00;100717.72;5136151;27;20034;-71
2022/05/28 04:48:09;;;;;;;10.02;5.03;;;;;;;22.88;100.00;100731.06;5135167;27;20087;-72
2022/05/28 04:50:55;;;;;;;7.68;5.10;;;;;;;23.18;100.00;100722.75;5135883;27;20464;-72
2022/05/28 04:53:41;;;;;;;7.38;5.20;;;;;;;23.37;100.00;100736.59;5135919;27;20035;-72
2022/05/28 04:56:27;;;;;;;8.25;5.07;;;;;;;23.44;100.00;100736.03;5121788;27;20023;-72
2022/05/28 04:59:12;;;;;;;6.22;4.78;;;;;;;23.42;100.00;100737.13;5135705;27;20027;-71
2022/05/28 05:01:58;;;;;;;8.65;4.55;;;;;;;23.54;100.00;100732.75;5135021;27;20122;-71
2022/05/28 05:04:44;;;;;;;5.00;4.50;;;;;;;23.54;100.00;100727.41;5135094;27;20031;-72
2022/05/28 05:07:30;;;;;;;8.80;4.90;;;;;;;22.88;100.00;100740.88;5135529;27;20027;-72
2022/05/28 05:10:16;;;;;;;6.65;5.00;;;;;;;23.45;100.00;100736.91;5136122;27;20072;-71
2022/05/28 05:13:02;;;;;;;8.20;5.30;;;;;;;22.36;100.00;100748.81;5133729;27;20027;-71
2022/05/28 05:15:47;;;;;;;6.38;4.70;;;;;;;22.93;100.00;100744.09;5134508;27;20047;-71
2022/05/28 05:18:34;;;;;;;6.45;4.55;;;;;;;23.81;100.00;100747.69;5135313;27;20054;-71
2022/05/28 05:21:20;;;;;;;9.63;4.75;;;;;;;23.99;100.00;100740.19;5135235;27;20031;-71
2022/05/28 05:24:06;;;;;;;5.10;4.05;;;;;;;23.89;100.00;100749.81;5135148;27;20023;-71
2022/05/28 05:26:52;;;;;;;7.85;5.00;;;;;;;23.27;100.00;100748.91;5120951;27;20026;-72
2022/05/28 05:29:39;;;;;;;9.77;4.43;;;;;;;23.56;100.00;100757.56;5134338;27;20073;-71
2022/05/28 05:32:26;;;;;;;6.63;4.43;;;;;;;23.70;100.00;100746.75;5134827;27;20122;-72
2022/05/28 05:35:12;;;;;;;6.20;4.28;;;;;;;23.57;100.00;100744.06;5135541;27;20069;-71
2022/05/28 05:38:05;;;;;;;4.95;4.45;;;;;;;23.55;100.00;100740.66;5134861;27;20351;-71
2022/05/28 05:40:52;;;;;;;9.23;4.60;;;;;;;23.35;100.00;100738.53;5135330;28;20027;-72
2022/05/28 05:43:38;;;;;;;7.68;4.60;;;;;;;23.46;100.00;100738.63;5134621;28;20019;-72
2022/05/28 05:46:23;;;;;;;5.85;4.10;;;;;;;23.48;100.00;100726.84;5134826;28;20091;-72
2022/05/28 05:49:11;;;;;;;5.50;4.68;;;;;;;23.80;100.00;100724.59;5134903;28;20088;-72
2022/05/28 05:51:57;;;;;;;6.57;4.78;;;;;;;23.37;100.00;100720.53;5135353;28;20035;-72
2022/05/28 05:54:43;;;;;;;7.28;4.88;;;;;;;23.64;100.00;100709.72;5134729;28;20039;-72
2022/05/28 05:57:28;;;;;;;6.50;4.70;;;;;;;23.79;100.00;100713.97;5118584;28;20031;-71
2022/05/28 06:00:15;;;;;;;5.75;4.55;;;;;;;24.30;100.00;100716.41;5134723;27;20070;-71
2022/05/28 06:03:01;;;;;;;9.05;4.80;;;;;;;24.49;100.00;100714.09;5138442;27;20071;-71
2022/05/28 06:05:54;;;;;;;6.03;5.13;;;;;;;23.95;100.00;100707.41;5138913;27;20088;-72
2022/05/28 06:08:40;;;;;;;9.32;5.07;;;;;;;24.43;100.00;100716.38;5123913;27;20031;-72
2022/05/28 06:11:26;;;;;;;8.68;5.05;;;;;;;24.44;100.00;100713.59;5138693;27;20075;-72
2022/05/28 06:14:12;;;;;;;9.68;5.45;;;;;;;23.88;100.00;100711.50;5138123;27;20080;-72
2022/05/28 06:16:58;;;;;;;9.95;4.75;;;;;;;24.30;100.00;100708.38;5138839;27;20121;-74
2022/05/28 06:19:43;;;;;;;9.23;4.70;;;;;;;24.47;100.00;100715.19;5139056;27;20031;-73
2022/05/28 06:22:29;;;;;;;8.25;4.40;;;;;;;24.32;100.00;100710.94;5139077;27;20023;-75
2022/05/28 06:25:15;;;;;;;8.88;4.90;;;;;;;24.33;100.00;100718.88;5138691;27;20027;-76
2022/05/28 06:28:00;;;;;;;9.32;4.90;;;;;;;23.94;100.00;100720.94;5139159;27;20065;-76
2022/05/28 06:30:49;;;;;;;10.48;4.70;;;;;;;24.59;100.00;100730.34;5137958;27;20058;-75
2022/05/28 06:33:37;;;;;;;6.95;4.53;;;;;;;24.45;100.00;100727.81;5138037;27;20024;-77
2022/05/28 06:36:23;;;;;;;10.30;4.47;;;;;;;24.53;100.00;100726.28;5137880;27;20026;-76
2022/05/28 06:39:09;;;;;;;7.78;4.60;;;;;;;24.68;100.00;100725.19;5123243;27;20053;-76
2022/05/28 06:41:54;;;;;;;7.78;4.00;;;;;;;24.64;100.00;100730.88;5138894;27;20030;-72
2022/05/28 06:44:40;;;;;;;8.02;4.40;;;;;;;24.20;100.00;100717.22;5123424;27;20031;-74
2022/05/28 06:47:27;;;;;;;4.85;4.07;;;;;;;24.36;100.00;100717.78;5138405;27;20019;-76
2022/05/28 06:53:20;;;;;;;8.43;4.68;;;;;;;24.54;100.00;100705.69;5138626;27;20019;-75
2022/05/28 06:56:08;;;;;;;6.47;4.35;;;;;;;23.92;100.00;100699.63;5137728;27;20374;-75
2022/05/28 06:58:53;;;;;;;5.68;4.25;;;;;;;24.86;100.00;100693.41;5123533;27;20027;-75
2022/05/28 07:01:40;;;;;;;10.23;4.60;;;;;;;24.97;100.00;100683.59;5137830;27;20458;-75
2022/05/28 07:04:26;;;;;;;6.90;4.28;;;;;;;24.65;100.00;100678.97;5123273;27;20042;-74
2022/05/28 07:07:12;;;;;;;6.32;4.10;;;;;;;24.83;100.00;100670.38;5122756;27;20024;-73
2022/05/28 07:09:57;;;;;;;5.72;4.15;;;;;;;24.75;100.00;100667.44;5138209;27;20101;-73
2022/05/28 07:12:43;;;;;;;7.90;4.20;;;;;;;24.74;100.00;100667.56;5136189;27;20066;-72
2022/05/28 07:15:29;;;;;;;5.03;4.28;;;;;;;25.08;100.00;100661.31;5138422;27;20332;-74
2022/05/28 07:18:15;;;;;;;11.90;4.90;;;;;;;24.37;100.00;100663.25;5137387;27;20042;-74
2022/05/28 07:21:02;;;;;;;8.05;4.45;;;;;;;24.37;100.00;100652.53;5137812;27;20403;-74
2022/05/28 07:23:48;;;;;;;9.00;4.43;;;;;;;24.44;100.00;100638.59;5137291;27;20019;-74
2022/05/28 07:26:34;;;;;;;9.07;4.75;;;;;;;24.63;100.00;100641.59;5137779;27;20030;-75
2022/05/28 07:29:20;;;;;;;11.80;4.72;;;;;;;23.94;100.00;100635.31;5137692;27;20074;-74
2022/05/28 07:32:07;;;;;;;8.88;5.00;;;;;;;24.90;100.00;100631.41;5136618;27;20038;-74
2022/05/28 07:34:53;;;;;;;9.48;5.15;;;;;;;25.19;100.00;100623.78;5122683;27;20406;-74
2022/05/28 07:37:39;;;;;;;15.82;6.85;;;;;;;25.10;100.00;100611.09;5137012;27;20038;-74
2022/05/28 07:40:25;;;;;;;17.58;6.80;;;;;;;25.04;100.00;100601.69;5136997;27;20511;-74
2022/05/28 07:43:11;;;;;;;12.70;5.60;;;;;;;25.03;100.00;100599.16;5136767;27;20031;-74
2022/05/28 07:45:56;;;;;;;11.82;5.40;;;;;;;24.98;100.00;100593.28;5136930;27;20027;-74
2022/05/28 07:48:42;;;;;;;6.82;4.78;;;;;;;25.59;100.00;100590.97;5136268;27;20023;-73
2022/05/28 07:51:29;;;;;;;6.90;4.80;;;;;;;25.75;100.00;100599.47;5121347;27;20100;-74
2022/05/28 07:54:16;;;;;;;9.75;4.43;;;;;;;26.57;100.00;100610.41;5136788;27;20477;-74
2022/05/28 07:57:02;;;;;;;11.73;6.63;;;;;;;26.55;100.00;100628.53;5136676;27;20031;-74
2022/05/28 07:59:48;;;;;;;6.50;4.07;;;;;;;26.05;100.00;100639.09;5136523;27;20030;-74
2022/05/28 08:02:34;;;;;;;8.18;4.88;;;;;;;26.57;100.00;100664.16;5137164;27;20038;-74
2022/05/28 08:05:20;;;;;;;7.90;4.80;;;;;;;26.61;100.00;100678.25;5136691;27;20359;-74
2022/05/28 08:08:07;;;;;;;9.32;5.00;;;;;;;27.03;100.00;100679.97;5136628;27;20022;-73
2022/05/28 08:10:53;;;;;;;10.65;4.55;;;;;;;27.06;100.00;100682.41;5137027;27;20027;-74
2022/05/28 08:13:39;;;;;;;6.13;4.45;;;;;;;26.79;100.00;100677.53;5121136;27;20035;-73
2022/05/28 08:16:25;;;;;;;6.15;4.45;;;;;;;27.14;100.00;100677.22;5136359;27;20354;-74
2022/05/28 08:19:10;;;;;;;8.82;4.05;;;;;;;27.65;100.00;100661.91;5135685;27;20072;-74
2022/05/28 08:25:00;;;;;;;5.72;3.75;;;;;;;28.62;85.14;100668.22;5136013;27;20080;-74
2022/05/28 08:27:46;;;;;;;4.30;3.55;;;;;;;28.51;84.92;100667.50;5136533;27;20015;-74
2022/05/28 08:30:32;;;;;;;4.97;3.92;;;;;;;28.94;83.49;100670.59;5121050;27;20038;-73
2022/05/28 08:33:19;;;;;;;5.40;3.72;;;;;;;28.70;86.50;100672.91;5136021;27;20015;-74
2022/05/28 08:36:05;;;;;;;4.60;3.90;;;;;;;28.41;90.66;100675.59;5135799;27;20023;-74
2022/05/28 08:38:52;;;;;;;8.27;3.90;;;;;;;28.66;81.63;100666.94;5121169;27;20483;-74
2022/05/28 08:41:50;;;;;;;6.55;3.90;;;;;;;28.76;82.84;100654.28;5136306;27;20030;-74
2022/05/28 08:44:39;;;;;;;6.32;4.28;;;;;;;29.00;82.73;100649.31;5120689;27;20076;-74
2022/05/28 08:47:32;;;;;;;6.88;3.88;;;;;;;28.97;82.76;100648.75;5136138;27;20027;-75
2022/05/28 08:50:18;;;;;;;5.65;3.55;;;;;;;28.48;83.10;100651.63;5120875;27;20448;-75
2022/05/28 08:53:11;;;;;;;5.95;3.80;;;;;;;28.37;83.37;100644.47;5135850;27;20037;-75
2022/05/28 08:55:58;;;;;;;5.10;3.80;;;;;;;28.54;83.76;100648.34;5135225;27;20031;-74
2022/05/28 08:58:48;;;;;;;6.60;4.07;;;;;;;28.47;86.84;100645.38;5136219;27;20023;-74
2022/05/28 09:01:37;;;;;;;6.82;3.92;;;;;;;27.61;95.41;100647.03;5120991;27;20133;-74
2022/05/28 09:04:44;;;;;;;4.75;4.03;;;;;;;27.30;97.11;100645.31;5120738;27;20034;-74
2022/05/28 09:07:30;;;;;;;8.90;4.32;;;;;;;27.40;95.87;100640.81;5135339;27;20098;-74
2022/05/28 09:10:16;;;;;;;7.03;4.10;;;;;;;27.42;95.04;100638.88;5135428;27;20023;-75
2022/05/28 09:13:35;;;;;;;7.53;4.30;;;;;;;28.49;90.51;100639.84;5135150;27;20122;-75
2022/05/28 09:16:26;;;;;;;6.35;4.57;;;;;;;28.14;90.90;100636.81;5134828;27;20114;-74
2022/05/28 09:19:22;;;;;;;7.63;5.50;;;;;;;28.81;86.25;100619.63;5119635;27;20030;-74
2022/05/28 09:22:08;;;;;;;9.85;4.13;;;;;;;29.00;82.01;100622.34;5135512;27;20057;-74
2022/05/28 09:24:54;;;;;;;6.28;3.50;;;;;;;28.21;89.88;100613.72;5135033;27;20042;-73
2022/05/28 09:27:55;;;;;;;5.32;3.95;;;;;;;28.89;84.90;100610.84;5120290;27;20030;-73
2022/05/28 09:31:00;;;;;;;6.82;3.55;;;;;;;29.75;76.35;100614.09;5120904;27;20113;-74
2022/05/28 09:33:54;;;;;;;6.85;3.90;;;;;;;29.36;73.93;100617.94;5135203;27;20027;-74
2022/05/28 09:37:09;;;;;;;5.90;3.70;;;;;;;29.40;78.61;100611.25;5134710;27;20059;-74
2022/05/28 09:40:21;;;;;;;7.15;3.97;;;;;;;30.04;76.51;100620.16;5126613;28;20397;-74
2022/05/28 09:43:28;;;;;;;4.65;3.30;;;;;;;29.60;70.94;100616.44;5119578;28;20106;-75
2022/05/28 09:46:34;;;;;;;8.00;4.25;;;;;;;30.02;70.46;100619.47;5134673;28;20029;-75
2022/05/28 09:49:24;;;;;;;7.95;4.00;;;;;;;30.33;68.53;100621.66;5134111;28;20035;-74
2022/05/28 09:52:10;;;;;;;6.75;3.47;;;;;;;30.22;69.08;100623.75;5120343;28;20015;-74
2022/05/28 09:55:18;;;;;;;5.53;3.65;;;;;;;29.76;71.31;100618.47;5134513;28;20038;-75
2022/05/28 09:58:07;;;;;;;7.75;5.47;;;;;;;30.02;70.49;100606.78;5135434;28;20031;-75
2022/05/28 10:01:10;;;;;;;8.48;4.65;;;;;;;29.94;73.49;100605.88;5120322;28;20448;-74
2022/05/28 10:07:08;;;;;;;6.35;3.88;;;;;;;30.04;70.19;100598.53;5134778;28;20019;-74
2022/05/28 10:09:54;;;;;;;4.90;3.50;;;;;;;30.18;67.26;100589.94;5134626;28;20042;-75
2022/05/28 10:12:40;;;;;;;8.38;5.43;;;;;;;30.69;67.41;100590.91;5134350;28;20391;-75
2022/05/28 10:15:32;;;;;;;5.32;3.20;;;;;;;30.59;59.08;100598.25;5135123;28;20058;-75
2022/05/28 10:18:25;;;;;;;7.45;4.05;;;;;;;30.61;57.73;100592.66;5133833;28;20024;-74
2022/05/28 10:21:15;;;;;;;7.07;3.35;;;;;;;31.11;56.19;100582.88;5135181;28;20022;-74
2022/05/28 10:24:05;;;;;;;6.22;3.10;;;;;;;29.71;56.91;100581.13;5119485;28;20027;-74
2022/05/28 10:26:56;;;;;;;9.00;3.30;;;;;;;30.85;56.94;100571.22;5134347;28;20027;-75
2022/05/28 10:29:48;;;;;;;8.75;3.90;;;;;;;31.56;56.06;100564.50;5134607;28;20038;-73
2022/05/28 10:32:53;;;;;;;5.05;3.30;;;;;;;31.95;54.05;100573.78;5121056;28;20051;-74
2022/05/28 10:35:39;;;;;;;23.55;17.40;;;;;;;31.15;55.36;100571.56;5119889;28;20073;-73
2022/05/28 10:38:27;;;;;;;9.18;5.18;;;;;;;30.85;53.32;100560.38;5134903;28;20023;-74
2022/05/28 10:41:25;;;;;;;5.93;3.13;;;;;;;31.07;52.65;100566.09;5118874;28;20020;-72
2022/05/28 10:44:15;;;;;;;5.47;3.47;;;;;;;31.52;52.19;100563.13;5118800;28;20043;-72
2022/05/28 10:47:29;;;;;;;8.13;3.45;;;;;;;31.18;51.93;100563.13;5137040;27;20483;-73
2022/05/28 10:50:23;;;;;;;3.80;2.70;;;;;;;31.70;49.72;100565.72;5137121;27;20114;-72
2022/05/28 10:53:34;;;;;;;5.72;2.88;;;;;;;31.60;47.53;100552.31;5138263;27;20123;-72
2022/05/28 10:56:26;;;;;;;6.38;3.20;;;;;;;31.45;48.18;100558.56;5138236;27;20088;-72
2022/05/28 10:59:15;;;;;;;8.27;2.90;;;;;;;31.20;49.03;100558.41;5138134;27;20476;-71
2022/05/28 11:02:00;;;;;;;5.15;2.80;;;;;;;31.05;49.24;100551.91;5137023;27;20109;-71
2022/05/28 11:05:01;;;;;;;4.22;2.95;;;;;;;31.12;49.89;100536.72;5137715;27;20467;-72
2022/05/28 11:07:51;;;;;;;5.25;2.83;;;;;;;31.44;49.56;100538.72;5137883;27;20019;-72
2022/05/28 11:10:49;;;;;;;5.68;2.92;;;;;;;31.42;48.20;100536.19;5122894;27;20027;-72
2022/05/28 11:13:47;;;;;;;7.82;4.30;;;;;;;31.97;47.09;100531.09;5136810;27;20023;-72
2022/05/28 11:16:57;;;;;;;4.70;2.70;;;;;;;31.56;47.88;100531.13;5122781;27;20039;-72
2022/05/28 11:20:17;;;;;;;4.38;3.00;;;;;;;31.79;49.08;100526.84;5123594;27;20135;-72
2022/05/28 11:23:25;;;;;;;4.00;2.90;;;;;;;31.63;48.64;100524.06;5137878;27;20019;-73
2022/05/28 11:26:38;;;;;;;4.05;3.00;;;;;;;32.00;48.57;100519.06;5136783;27;20026;-71
2022/05/28 11:29:42;;;;;;;7.88;3.55;;;;;;;31.66;49.72;100511.00;5137136;27;20027;-72
2022/05/28 11:32:52;;;;;;;10.63;7.03;;;;;;;31.58;49.68;100508.28;5136339;27;20369;-73
2022/05/28 11:35:50;;;;;;;9.82;7.80;;;;;;;31.57;49.12;100501.19;5137271;27;20105;-73
2022/05/28 11:39:02;;;;;;;7.60;3.20;;;;;;;31.25;51.65;100499.22;5137433;27;20039;-72
2022/05/28 11:41:55;;;;;;;5.38;2.83;;;;;;;31.24;52.73;100500.25;5137384;27;20385;-74
2022/05/28 11:44:50;;;;;;;3.42;3.10;;;;;;;31.33;52.85;100498.41;5136964;27;20386;-72
2022/05/28 11:48:10;;;;;;;8.43;3.60;;;;;;;31.14;54.93;100502.19;5122256;27;20027;-72
2022/05/28 11:51:35;;;;;;;5.43;3.13;;;;;;;31.22;54.61;100491.41;5123591;27;20071;-76
2022/05/28 11:54:37;;;;;;;4.93;3.50;;;;;;;32.15;53.69;100484.84;5125688;27;20027;-74
2022/05/28 11:57:32;;;;;;;9.00;3.72;;;;;;;32.03;54.21;100483.50;5136973;27;20035;-77
2022/05/28 12:00:19;;;;;;;5.70;3.25;;;;;;;31.64;53.76;100482.38;5137621;27;20089;-73
2022/05/28 12:03:17;;;;;;;6.85;3.53;;;;;;;31.75;54.15;100472.09;5138615;27;20038;-76
2022/05/28 12:06:18;;;;;;;4.82;3.00;;;;;;;32.10;53.04;100477.22;5137195;27;20414;-74
2022/05/28 12:09:21;;;;;;;4.75;3.55;;;;;;;31.69;55.13;100477.34;5137116;27;20026;-76
2022/05/28 12:12:23;;;;;;;6.90;3.40;;;;;;;32.00;53.72;100471.13;5122535;27;20084;-75
2022/05/28 12:15:30;;;;;;;7.07;3.25;;;;;;;32.20;54.43;100464.34;5121749;27;20112;-72
2022/05/28 12:18:24;;;;;;;4.80;3.42;;;;;;;31.74;54.96;100456.84;5135790;27;20047;-73
2022/05/28 12:21:11;;;;;;;10.05;3.63;;;;;;;32.15;56.04;100447.75;5137535;27;20031;-71
2022/05/28 12:24:20;;;;;;;4.75;3.67;;;;;;;32.25;54.03;100440.25;5135925;27;20037;-75
2022/05/28 12:27:13;;;;;;;6.20;3.78;;;;;;;32.44;54.42;100445.34;5136439;27;20031;-75
2022/05/28 12:30:01;;;;;;;6.53;3.25;;;;;;;32.31;54.90;100433.34;5136309;27;20035;-76
2022/05/28 12:32:49;;;;;;;5.38;3.70;;;;;;;32.09;56.43;100434.84;5137590;27;20533;-77
2022/05/28 12:35:52;;;;;;;6.05;3.78;;;;;;;31.99;56.43;100436.06;5136167;27;20031;-75
2022/05/28 12:38:44;;;;;;;8.13;3.60;;;;;;;31.86;56.60;100431.13;5136918;27;20031;-77
2022/05/28 12:41:37;;;;;;;8.40;3.63;;;;;;;32.06;56.11;100434.34;5136858;27;20030;-77
2022/05/28 12:44:24;;;;;;;7.00;3.78;;;;;;;32.44;55.69;100430.94;5136647;27;20015;-75
2022/05/28 12:47:28;;;;;;;7.28;3.50;;;;;;;31.09;60.61;100419.78;5121552;27;20038;-77
2022/05/28 12:50:27;;;;;;;10.30;3.75;;;;;;;31.19;59.16;100409.66;5121820;27;20109;-76
2022/05/28 12:53:19;;;;;;;8.18;3.70;;;;;;;31.98;56.01;100408.09;5122070;27;20118;-75
2022/05/28 12:56:26;;;;;;;9.77;3.30;;;;;;;31.68;53.96;100397.91;5135276;27;20046;-74
2022/05/28 12:59:29;;;;;;;14.88;3.90;;;;;;;31.74;54.83;100397.22;5135778;27;20102;-75
2022/05/28 13:02:15;;;;;;;4.97;3.30;;;;;;;31.78;54.45;100390.47;5135918;27;20031;-76
2022/05/28 13:05:19;;;;;;;6.72;3.13;;;;;;;31.74;54.52;100390.97;5135951;27;20106;-74
2022/05/28 13:08:12;;;;;;;8.45;4.60;;;;;;;31.72;53.84;100379.44;5135218;27;20116;-76
2022/05/28 13:11:04;;;;;;;12.00;4.57;;;;;;;31.37;54.70;100375.19;5135026;27;20050;-76
2022/05/28 13:14:18;;;;;;;6.22;3.60;;;;;;;31.29;56.26;100358.94;5135354;27;20054;-74
2022/05/28 13:17:42;;;;;;;5.45;3.40;;;;;;;32.08;54.04;100365.38;5135206;27;20034;-75